Time;durP1;ratioP1;P1;durP2;ratioP2;P2;SDS_P1;SDS_P2;PMS_P1;PMS_P2;Temp;Humidity;BMP_temperature;BMP_pressure;BME280_temperature;BME280_humidity;BME280_pressure;Samples;Min_cycle;Max_cycle;Signal;HPM_P1;HPM_P2
2022/12/03 00:00:38;;;;;;;16.25;10.57;;;;;;;;;;6147233;23;20512;-89
2022/12/03 00:03:06;;;;;;;14.93;11.57;;;;;;;;;;6148784;23;20176;-89
2022/12/03 00:05:37;;;;;;;14.23;11.10;;;;;;;;;;6146651;23;20557;-87
2022/12/03 00:08:21;;;;;;;16.77;12.15;;;;;;;;;;6158338;23;20163;-87
2022/12/03 00:11:02;;;;;;;;;;;;;;;;;;;;;
2022/12/03 00:13:44;;;;;;;;;;;;;;;;;;;;;
2022/12/03 00:16:13;;;;;;;13.50;9.95;;;;;;;;;;6148846;23;20204;-89
2022/12/03 00:18:44;;;;;;;15.65;11.63;;;;;;;;;;6121611;23;20192;-89
2022/12/03 00:21:20;;;;;;;14.52;10.90;;;;;;;;;;6147181;23;20465;-89
2022/12/03 00:23:51;;;;;;;14.68;10.68;;;;;;;;;;6118492;23;20227;-89
2022/12/03 00:26:25;;;;;;;12.82;10.70;;;;;;;;;;6148783;23;20205;-88
2022/12/03 00:28:58;;;;;;;10.95;9.43;;;;;;;;;;6143395;23;20159;-88
2022/12/03 00:31:46;;;;;;;12.80;11.18;;;;;;;;;;6148806;23;20122;-89
2022/12/03 00:34:22;;;;;;;15.82;11.30;;;;;;;;;;6145659;23;20191;-90
2022/12/03 00:36:51;;;;;;;17.08;11.65;;;;;;;;;;6148543;23;20144;-91
2022/12/03 00:39:17;;;;;;;17.92;12.20;;;;;;;;;;6143239;23;20155;-91
2022/12/03 00:42:02;;;;;;;;;;;;;;;;;;;;;
2022/12/03 00:44:31;;;;;;;16.27;10.75;;;;;;;;;;6144627;23;20705;-89
2022/12/03 00:47:10;;;;;;;;;;;;;;;;;;;;;
2022/12/03 00:49:38;;;;;;;15.48;10.95;;;;;;;;;;6145281;23;20669;-89
2022/12/03 00:52:07;;;;;;;14.57;11.02;;;;;;;;;;6175350;23;20136;-95
2022/12/03 00:54:38;;;;;;;15.00;11.75;;;;;;;;;;6177563;23;20179;-93
2022/12/03 00:59:40;;;;;;;15.02;10.80;;;;;;;;;;6192316;22;20200;-90
2022/12/03 01:02:06;;;;;;;13.50;10.50;;;;;;;;;;6176280;23;20252;-91
2022/12/03 01:04:32;;;;;;;17.30;12.40;;;;;;;;;;6156150;23;20194;-91
2022/12/03 01:06:59;;;;;;;15.52;10.68;;;;;;;;;;6153446;23;20161;-90
2022/12/03 01:09:25;;;;;;;14.80;10.75;;;;;;;;;;6150516;23;20493;-91
2022/12/03 01:11:54;;;;;;;13.60;10.70;;;;;;;;;;6153505;23;20159;-90
2022/12/03 01:14:23;;;;;;;15.05;11.57;;;;;;;;;;6126508;23;20394;-90
2022/12/03 01:16:51;;;;;;;15.32;11.48;;;;;;;;;;6153748;23;20186;-90
2022/12/03 01:19:21;;;;;;;16.27;11.45;;;;;;;;;;6176958;23;20160;-92
2022/12/03 01:21:48;;;;;;;16.52;12.10;;;;;;;;;;6153395;23;20771;-91
2022/12/03 01:24:15;;;;;;;13.82;10.45;;;;;;;;;;6153206;23;20164;-90
2022/12/03 01:26:41;;;;;;;13.88;10.52;;;;;;;;;;6188784;23;20195;-91
2022/12/03 01:29:10;;;;;;;14.20;11.32;;;;;;;;;;6150191;23;20163;-92
2022/12/03 01:34:22;;;;;;;13.73;10.65;;;;;;;;;;6176613;23;20171;-91
2022/12/03 01:36:48;;;;;;;17.00;11.93;;;;;;;;;;6152679;23;20195;-91
2022/12/03 01:39:14;;;;;;;24.65;15.40;;;;;;;;;;6177339;23;20247;-91
2022/12/03 01:41:40;;;;;;;15.65;12.10;;;;;;;;;;6147495;23;20166;-90
2022/12/03 01:44:13;;;;;;;15.48;11.07;;;;;;;;;;6150871;23;20191;-90
2022/12/03 01:46:40;;;;;;;13.85;11.20;;;;;;;;;;6153964;23;20187;-91
2022/12/03 01:49:13;;;;;;;19.20;12.10;;;;;;;;;;6175762;23;20179;-91
2022/12/03 01:51:40;;;;;;;17.98;11.65;;;;;;;;;;6151877;23;20164;-91
2022/12/03 01:54:06;;;;;;;16.20;11.00;;;;;;;;;;6148932;23;20162;-91
2022/12/03 01:56:32;;;;;;;17.77;12.60;;;;;;;;;;6152615;23;20160;-91
2022/12/03 01:58:58;;;;;;;14.30;10.45;;;;;;;;;;6148008;23;20362;-91
2022/12/03 02:01:24;;;;;;;15.13;12.13;;;;;;;;;;6152830;23;20174;-91
2022/12/03 02:03:50;;;;;;;13.02;11.15;;;;;;;;;;6149653;23;20211;-91
2022/12/03 02:06:19;;;;;;;19.15;12.48;;;;;;;;;;6178958;23;20176;-91
2022/12/03 02:08:45;;;;;;;15.68;10.50;;;;;;;;;;6149120;23;20168;-91
2022/12/03 02:11:33;;;;;;;17.35;12.05;;;;;;;;;;6152629;23;20214;-91
2022/12/03 02:14:01;;;;;;;16.33;10.85;;;;;;;;;;6149086;23;20374;-91
2022/12/03 02:16:28;;;;;;;16.85;12.02;;;;;;;;;;6154088;23;20168;-91
2022/12/03 02:18:54;;;;;;;17.38;12.10;;;;;;;;;;6150547;23;20160;-91
2022/12/03 02:21:26;;;;;;;13.98;10.43;;;;;;;;;;6153757;23;20160;-91
2022/12/03 02:23:59;;;;;;;16.30;11.68;;;;;;;;;;6152648;23;20188;-90
2022/12/03 02:26:28;;;;;;;14.40;10.80;;;;;;;;;;6161224;23;20195;-91
2022/12/03 02:28:54;;;;;;;18.08;11.77;;;;;;;;;;6141200;23;20187;-91
2022/12/03 02:31:21;;;;;;;16.98;11.70;;;;;;;;;;6182621;23;20156;-90
2022/12/03 02:33:47;;;;;;;17.13;13.43;;;;;;;;;;6204960;23;20186;-91
2022/12/03 02:36:13;;;;;;;14.80;11.30;;;;;;;;;;6208512;23;20175;-90
2022/12/03 02:38:41;;;;;;;18.50;12.27;;;;;;;;;;6174706;23;20211;-90
2022/12/03 02:41:08;;;;;;;17.63;11.95;;;;;;;;;;6154440;23;20192;-91
2022/12/03 02:43:34;;;;;;;18.38;12.57;;;;;;;;;;6154104;23;20200;-91
2022/12/03 02:46:02;;;;;;;19.08;13.55;;;;;;;;;;6155488;23;20244;-91
2022/12/03 02:48:29;;;;;;;22.15;14.13;;;;;;;;;;6150802;23;20354;-91
2022/12/03 02:50:58;;;;;;;18.02;12.52;;;;;;;;;;6146051;23;20238;-92
2022/12/03 02:53:25;;;;;;;20.83;12.80;;;;;;;;;;6151783;23;20235;-92
2022/12/03 02:55:52;;;;;;;21.85;11.63;;;;;;;;;;6183308;23;20152;-90
2022/12/03 02:58:19;;;;;;;20.50;14.95;;;;;;;;;;6152896;23;20242;-90
2022/12/03 03:00:45;;;;;;;21.05;11.45;;;;;;;;;;6174778;23;20158;-90
2022/12/03 03:03:11;;;;;;;21.40;14.60;;;;;;;;;;6175207;23;20199;-91
2022/12/03 03:05:40;;;;;;;22.48;13.10;;;;;;;;;;6172507;23;20195;-89
2022/12/03 03:08:07;;;;;;;21.73;13.32;;;;;;;;;;6158116;23;20156;-91
2022/12/03 03:10:34;;;;;;;22.52;14.35;;;;;;;;;;6180537;23;20159;-90
2022/12/03 03:13:01;;;;;;;18.98;13.73;;;;;;;;;;6169283;23;20168;-91
2022/12/03 03:15:27;;;;;;;19.13;11.93;;;;;;;;;;6163324;23;20362;-91
2022/12/03 03:17:53;;;;;;;20.27;12.70;;;;;;;;;;6156851;23;20166;-91
2022/12/03 03:20:19;;;;;;;22.05;13.15;;;;;;;;;;6156078;23;20149;-90
2022/12/03 03:22:48;;;;;;;21.17;13.80;;;;;;;;;;6156509;23;20190;-91
2022/12/03 03:25:19;;;;;;;22.33;14.23;;;;;;;;;;6133333;23;20611;-91
2022/12/03 03:27:45;;;;;;;21.63;13.45;;;;;;;;;;6154661;23;20152;-91
2022/12/03 03:30:12;;;;;;;18.77;13.50;;;;;;;;;;6156565;23;20164;-91
2022/12/03 03:32:41;;;;;;;17.70;11.52;;;;;;;;;;6178570;23;20226;-90
2022/12/03 03:35:08;;;;;;;23.25;11.85;;;;;;;;;;6154174;23;20148;-92
2022/12/03 03:37:38;;;;;;;21.27;12.82;;;;;;;;;;6154488;23;20156;-91
2022/12/03 03:40:05;;;;;;;23.77;13.30;;;;;;;;;;6153902;23;20156;-91
2022/12/03 03:42:31;;;;;;;17.45;12.70;;;;;;;;;;6146923;23;20669;-91
2022/12/03 03:44:57;;;;;;;17.20;12.32;;;;;;;;;;6149969;23;20164;-91
2022/12/03 03:47:24;;;;;;;15.25;10.38;;;;;;;;;;6153241;23;20641;-91
2022/12/03 03:49:50;;;;;;;19.52;12.98;;;;;;;;;;6150020;23;20426;-92
2022/12/03 03:52:17;;;;;;;17.35;11.93;;;;;;;;;;6155256;23;20570;-92
2022/12/03 03:54:44;;;;;;;18.92;12.73;;;;;;;;;;6150628;23;20156;-91
2022/12/03 03:57:10;;;;;;;17.10;12.55;;;;;;;;;;6153562;23;20263;-91
2022/12/03 03:59:36;;;;;;;18.80;13.25;;;;;;;;;;6126477;23;20258;-92
2022/12/03 04:02:03;;;;;;;20.80;13.20;;;;;;;;;;6186195;23;20175;-92
2022/12/03 04:04:32;;;;;;;20.10;12.20;;;;;;;;;;6176231;23;20150;-91
2022/12/03 04:06:58;;;;;;;19.75;13.65;;;;;;;;;;6153742;23;20619;-91
2022/12/03 04:09:24;;;;;;;25.58;13.60;;;;;;;;;;6151161;23;20624;-92
2022/12/03 04:14:35;;;;;;;27.33;14.10;;;;;;;;;;6176791;23;20738;-91
2022/12/03 04:17:01;;;;;;;19.88;12.10;;;;;;;;;;6153185;23;20160;-91
2022/12/03 04:19:27;;;;;;;19.70;12.63;;;;;;;;;;6150278;23;20441;-91
2022/12/03 04:24:37;;;;;;;22.95;12.77;;;;;;;;;;6176910;23;20390;-90
2022/12/03 04:29:48;;;;;;;20.65;11.98;;;;;;;;;;6176151;23;20550;-91
2022/12/03 04:37:44;;;;;;;24.10;12.32;;;;;;;;;;6176035;23;20198;-92
2022/12/03 04:43:13;;;;;;;26.08;12.45;;;;;;;;;;6179722;23;20531;-92
2022/12/03 04:45:44;;;;;;;26.27;12.63;;;;;;;;;;6163460;23;20163;-94
2022/12/03 04:48:17;;;;;;;21.75;13.15;;;;;;;;;;6159249;23;20186;-92
2022/12/03 04:50:48;;;;;;;25.08;13.05;;;;;;;;;;6162734;23;20149;-91
2022/12/03 04:53:14;;;;;;;22.75;12.30;;;;;;;;;;6155121;23;20359;-91
2022/12/03 04:55:53;;;;;;;19.48;10.95;;;;;;;;;;6157529;23;20160;-90
2022/12/03 04:58:19;;;;;;;22.15;10.93;;;;;;;;;;6153547;23;20184;-90
2022/12/03 05:01:07;;;;;;;19.50;11.05;;;;;;;;;;6177510;23;20140;-89
2022/12/03 05:03:33;;;;;;;21.42;10.77;;;;;;;;;;6163391;23;20192;-89
2022/12/03 05:06:01;;;;;;;24.38;11.93;;;;;;;;;;6155862;23;20218;-90
2022/12/03 05:08:30;;;;;;;24.83;11.68;;;;;;;;;;6154312;23;20167;-90
2022/12/03 05:10:56;;;;;;;23.80;13.20;;;;;;;;;;6160579;23;20139;-90
2022/12/03 05:13:22;;;;;;;23.40;11.27;;;;;;;;;;6155451;23;20176;-90
2022/12/03 05:15:54;;;;;;;23.92;11.73;;;;;;;;;;6157155;23;20247;-90
2022/12/03 05:18:26;;;;;;;23.90;12.13;;;;;;;;;;6154124;23;20163;-92
2022/12/03 05:20:54;;;;;;;25.38;12.82;;;;;;;;;;6155431;23;20256;-90
2022/12/03 05:23:27;;;;;;;23.48;11.90;;;;;;;;;;6156591;23;20176;-90
2022/12/03 05:26:01;;;;;;;24.15;12.32;;;;;;;;;;6180124;23;20148;-90
2022/12/03 05:28:29;;;;;;;22.92;11.55;;;;;;;;;;6177379;23;20160;-89
2022/12/03 05:30:58;;;;;;;24.83;13.32;;;;;;;;;;6181419;23;20154;-88
2022/12/03 05:33:35;;;;;;;24.25;12.80;;;;;;;;;;6177433;23;20172;-89
2022/12/03 05:36:04;;;;;;;21.77;10.27;;;;;;;;;;6163460;23;20144;-91
2022/12/03 05:38:30;;;;;;;30.52;12.18;;;;;;;;;;6156657;23;20156;-90
2022/12/03 05:44:02;;;;;;;25.00;12.68;;;;;;;;;;6180940;23;20648;-91
2022/12/03 05:46:28;;;;;;;31.70;12.70;;;;;;;;;;6184699;23;20234;-91
2022/12/03 05:48:54;;;;;;;26.27;14.27;;;;;;;;;;6156163;23;20165;-91
2022/12/03 05:51:27;;;;;;;27.23;12.45;;;;;;;;;;6160332;23;20179;-91
2022/12/03 05:54:02;;;;;;;29.80;14.20;;;;;;;;;;6153304;23;20163;-91
2022/12/03 05:56:31;;;;;;;25.27;13.13;;;;;;;;;;6168688;23;20178;-90
2022/12/03 05:59:03;;;;;;;22.10;11.90;;;;;;;;;;6174196;23;20599;-91
2022/12/03 06:01:34;;;;;;;26.23;12.90;;;;;;;;;;6154183;23;20179;-92
2022/12/03 06:04:05;;;;;;;28.13;11.98;;;;;;;;;;6157120;23;20250;-91
2022/12/03 06:06:31;;;;;;;22.70;12.68;;;;;;;;;;6154548;23;20211;-91
2022/12/03 06:09:27;;;;;;;23.15;13.68;;;;;;;;;;6169730;23;20202;-90
2022/12/03 06:11:53;;;;;;;25.75;13.02;;;;;;;;;;6154953;23;20160;-89
2022/12/03 06:14:19;;;;;;;31.87;14.13;;;;;;;;;;6209155;23;20207;-90
2022/12/03 06:17:07;;;;;;;30.08;13.50;;;;;;;;;;6200952;23;20379;-91
2022/12/03 06:19:39;;;;;;;21.13;11.50;;;;;;;;;;6174666;23;20151;-91
2022/12/03 06:22:08;;;;;;;24.27;13.70;;;;;;;;;;6170073;23;20215;-90
2022/12/03 06:24:34;;;;;;;27.20;13.80;;;;;;;;;;6178555;23;20164;-90
2022/12/03 06:27:06;;;;;;;25.50;14.70;;;;;;;;;;6164285;23;20164;-90
2022/12/03 06:29:32;;;;;;;25.30;13.77;;;;;;;;;;6166523;23;20164;-90
2022/12/03 06:31:58;;;;;;;29.33;13.75;;;;;;;;;;6165658;23;20239;-90
2022/12/03 06:34:33;;;;;;;23.67;13.40;;;;;;;;;;6169796;23;20336;-91
2022/12/03 06:36:59;;;;;;;17.70;8.65;;;;;;;;;;6164877;23;20155;-89
2022/12/03 06:39:28;;;;;;;17.95;11.60;;;;;;;;;;6188688;23;20597;-92
2022/12/03 06:41:56;;;;;;;30.70;13.90;;;;;;;;;;6154127;23;20410;-91
2022/12/03 06:44:24;;;;;;;17.85;10.00;;;;;;;;;;6161349;23;20164;-90
2022/12/03 06:46:56;;;;;;;26.50;12.90;;;;;;;;;;6156008;23;20155;-90
2022/12/03 06:49:35;;;;;;;26.02;12.95;;;;;;;;;;6159578;23;20143;-91
2022/12/03 06:52:19;;;;;;;24.77;13.00;;;;;;;;;;6158031;23;20160;-91
2022/12/03 06:54:47;;;;;;;25.48;12.63;;;;;;;;;;6162229;23;20147;-93
2022/12/03 06:57:15;;;;;;;24.48;12.63;;;;;;;;;;6187442;23;20152;-90
2022/12/03 07:00:06;;;;;;;22.08;12.43;;;;;;;;;;6167833;23;20183;-91
2022/12/03 07:02:36;;;;;;;23.70;11.50;;;;;;;;;;6180894;23;20317;-91
2022/12/03 07:05:03;;;;;;;26.67;13.82;;;;;;;;;;6183389;23;20173;-91
2022/12/03 07:07:32;;;;;;;27.67;13.60;;;;;;;;;;6164610;23;20168;-90
2022/12/03 07:10:00;;;;;;;23.75;12.82;;;;;;;;;;6159486;23;20165;-85
2022/12/03 07:12:26;;;;;;;19.02;10.93;;;;;;;;;;6158001;23;20155;-90
2022/12/03 07:14:58;;;;;;;18.42;10.32;;;;;;;;;;6161701;23;20187;-90
2022/12/03 07:17:41;;;;;;;24.15;12.88;;;;;;;;;;6157148;23;20156;-90
2022/12/03 07:20:30;;;;;;;28.02;13.18;;;;;;;;;;6185392;23;20143;-90
2022/12/03 07:22:56;;;;;;;22.20;10.95;;;;;;;;;;6143597;23;20202;-90
2022/12/03 07:25:25;;;;;;;21.70;11.98;;;;;;;;;;6166648;23;20153;-90
2022/12/03 07:28:05;;;;;;;23.27;12.13;;;;;;;;;;6165838;23;20163;-90
2022/12/03 07:30:48;;;;;;;;;;;;;;;;;;;;;
2022/12/03 07:33:32;;;;;;;19.13;11.77;;;;;;;;;;6185302;23;20164;-89
2022/12/03 07:36:06;;;;;;;19.98;10.95;;;;;;;;;;6160491;23;20152;-91
2022/12/03 07:38:54;;;;;;;24.27;12.35;;;;;;;;;;6160226;23;20208;-91
2022/12/03 07:41:29;;;;;;;25.33;12.13;;;;;;;;;;6155207;23;20156;-91
2022/12/03 07:44:05;;;;;;;21.08;10.88;;;;;;;;;;6162025;23;20180;-88
2022/12/03 07:46:40;;;;;;;23.17;12.48;;;;;;;;;;6157146;23;20167;-90
2022/12/03 07:49:37;;;;;;;25.27;12.90;;;;;;;;;;6184928;23;20156;-89
2022/12/03 07:52:06;;;;;;;19.45;10.82;;;;;;;;;;6182354;23;20164;-91
2022/12/03 07:54:35;;;;;;;21.55;12.05;;;;;;;;;;6156580;23;20183;-90
2022/12/03 07:57:08;;;;;;;21.70;11.75;;;;;;;;;;6154748;23;20183;-91
2022/12/03 07:59:37;;;;;;;21.95;11.20;;;;;;;;;;6135477;23;20194;-90
2022/12/03 08:02:08;;;;;;;23.17;12.55;;;;;;;;;;6123492;23;20571;-87
2022/12/03 08:04:40;;;;;;;17.52;12.43;;;;;;;;;;6153647;23;20130;-90
2022/12/03 08:07:24;;;;;;;25.15;11.13;;;;;;;;;;6124128;23;20161;-90
2022/12/03 08:09:50;;;;;;;25.42;12.70;;;;;;;;;;6129291;23;20148;-90
2022/12/03 08:12:43;;;;;;;25.38;13.20;;;;;;;;;;6128451;23;20167;-88
2022/12/03 08:15:11;;;;;;;24.08;12.18;;;;;;;;;;6132989;23;20406;-90
2022/12/03 08:17:41;;;;;;;19.88;12.25;;;;;;;;;;6131717;23;20168;-90
2022/12/03 08:20:20;;;;;;;24.38;13.68;;;;;;;;;;6143535;23;20170;-88
2022/12/03 08:23:06;;;;;;;24.58;12.80;;;;;;;;;;6146292;23;20192;-89
2022/12/03 08:25:35;;;;;;;24.33;13.60;;;;;;;;;;6177884;23;20164;-91
2022/12/03 08:28:40;;;;;;;24.48;14.43;;;;;;;;;;6139909;23;20532;-91
2022/12/03 08:31:24;;;;;;;23.77;12.93;;;;;;;;;;6017296;23;20148;-90
2022/12/03 08:34:13;;;;;;;26.52;13.35;;;;;;;;;;6149313;23;20152;-87
2022/12/03 08:36:45;;;;;;;23.63;12.82;;;;;;;;;;6152224;23;20160;-89
2022/12/03 08:39:21;;;;;;;23.30;13.18;;;;;;;;;;6129947;23;20160;-88
2022/12/03 08:44:46;;;;;;;24.50;12.40;;;;;;;;;;6156499;23;20616;-90
2022/12/03 08:47:15;;;;;;;26.15;14.57;;;;;;;;;;6129146;23;20169;-90
2022/12/03 08:53:02;;;;;;;27.30;13.25;;;;;;;;;;6166724;23;20188;-93
2022/12/03 08:55:50;;;;;;;26.52;15.35;;;;;;;;;;6178458;23;20129;-92
2022/12/03 08:58:23;;;;;;;24.60;13.60;;;;;;;;;;6152722;23;20188;-90
2022/12/03 09:03:58;;;;;;;24.55;12.27;;;;;;;;;;6134340;23;20201;-90
2022/12/03 09:06:24;;;;;;;25.42;12.40;;;;;;;;;;6167515;23;20212;-90
2022/12/03 09:09:00;;;;;;;26.73;13.15;;;;;;;;;;6163261;23;20160;-89
2022/12/03 09:43:07;;;;;;;25.25;14.30;;;;;;;;;;6180715;22;20203;-94
2022/12/03 09:46:04;;;;;;;25.08;13.27;;;;;;;;;;6169699;23;20141;-92
2022/12/03 09:51:15;;;;;;;28.85;13.57;;;;;;;;;;6190002;23;20575;-92
2022/12/03 09:53:53;;;;;;;24.60;13.93;;;;;;;;;;6197895;23;20143;-94
2022/12/03 09:56:21;;;;;;;20.05;12.45;;;;;;;;;;6172425;23;20408;-91
2022/12/03 09:58:53;;;;;;;25.30;13.18;;;;;;;;;;6168496;23;20190;-93
2022/12/03 10:02:03;;;;;;;30.45;14.40;;;;;;;;;;6169872;23;20156;-94
2022/12/03 10:12:31;;;;;;;22.63;13.65;;;;;;;;;;6199887;23;20189;-92
2022/12/03 10:26:15;;;;;;;27.65;15.00;;;;;;;;;;6182139;23;20215;-89
2022/12/03 10:28:45;;;;;;;20.50;13.27;;;;;;;;;;6187244;23;20148;-89
2022/12/03 10:31:13;;;;;;;26.15;14.48;;;;;;;;;;6160396;23;20159;-90
2022/12/03 10:36:50;;;;;;;23.08;13.90;;;;;;;;;;6190792;23;20162;-89
2022/12/03 10:39:16;;;;;;;23.88;14.23;;;;;;;;;;6159317;23;20164;-90
2022/12/03 10:41:43;;;;;;;23.63;14.20;;;;;;;;;;6155547;23;20904;-88
2022/12/03 10:44:17;;;;;;;22.75;13.70;;;;;;;;;;6184280;23;20414;-90
2022/12/03 10:46:44;;;;;;;25.30;12.70;;;;;;;;;;6188039;23;20158;-89
2022/12/03 10:49:24;;;;;;;;;;;;;;;;;;;;;
2022/12/03 10:51:57;;;;;;;25.30;14.50;;;;;;;;;;6183035;23;20194;-90
2022/12/03 10:54:24;;;;;;;29.25;14.15;;;;;;;;;;6160146;23;20235;-89
2022/12/03 10:56:51;;;;;;;24.05;14.35;;;;;;;;;;6188839;23;20644;-90
2022/12/03 11:42:36;;;;;;;23.95;14.07;;;;;;;;;;6194489;22;20195;-92
2022/12/03 11:50:58;;;;;;;26.35;13.20;;;;;;;;;;6186325;23;20231;-89
2022/12/03 11:53:54;;;;;;;25.15;15.50;;;;;;;;;;6162458;23;20156;-93
2022/12/03 11:56:26;;;;;;;28.27;16.58;;;;;;;;;;6153353;23;20160;-89
2022/12/03 11:59:01;;;;;;;27.33;15.82;;;;;;;;;;6175939;23;20155;-90
2022/12/03 12:12:10;;;;;;;31.40;14.75;;;;;;;;;;6191056;23;20202;-91
2022/12/03 12:14:54;;;;;;;21.70;14.07;;;;;;;;;;6203148;23;20182;-92
2022/12/03 12:17:34;;;;;;;28.58;13.45;;;;;;;;;;6196766;23;20154;-87
2022/12/03 12:20:18;;;;;;;28.40;15.80;;;;;;;;;;6178449;23;20173;-89
2022/12/03 12:22:44;;;;;;;22.48;14.43;;;;;;;;;;6177466;23;20203;-91
2022/12/03 12:25:39;;;;;;;26.80;15.03;;;;;;;;;;6177914;23;20164;-91
2022/12/03 12:28:16;;;;;;;26.88;14.45;;;;;;;;;;6173864;23;20404;-92
2022/12/03 12:36:09;;;;;;;19.98;12.75;;;;;;;;;;6200748;22;20275;-91
2022/12/03 12:38:35;;;;;;;30.25;14.18;;;;;;;;;;6203263;23;20183;-90
2022/12/03 12:46:36;;;;;;;22.80;14.07;;;;;;;;;;6185199;23;20212;-91
2022/12/03 12:49:05;;;;;;;27.70;14.25;;;;;;;;;;6167360;23;20192;-91
2022/12/03 12:51:32;;;;;;;18.52;11.50;;;;;;;;;;6163792;23;20160;-91
2022/12/03 12:53:58;;;;;;;23.92;14.77;;;;;;;;;;6161482;23;20449;-91
2022/12/03 12:56:24;;;;;;;25.40;16.13;;;;;;;;;;6163052;23;20165;-88
2022/12/03 12:58:50;;;;;;;25.10;14.80;;;;;;;;;;6161401;23;20165;-88
2022/12/03 13:01:31;;;;;;;24.67;14.57;;;;;;;;;;6168578;23;20209;-91
2022/12/03 13:03:58;;;;;;;25.75;14.77;;;;;;;;;;6176071;23;20249;-91
2022/12/03 13:06:31;;;;;;;27.05;16.10;;;;;;;;;;6169743;23;20604;-89
2022/12/03 13:08:59;;;;;;;30.13;15.90;;;;;;;;;;6163304;23;20190;-90
2022/12/03 13:11:38;;;;;;;23.63;14.88;;;;;;;;;;6190182;23;20153;-91
2022/12/03 13:14:13;;;;;;;32.13;16.70;;;;;;;;;;6165527;23;20180;-89
2022/12/03 13:16:46;;;;;;;26.73;15.73;;;;;;;;;;6166771;23;20190;-90
2022/12/03 13:19:20;;;;;;;24.60;14.80;;;;;;;;;;6162803;23;20638;-90
2022/12/03 13:21:52;;;;;;;26.67;14.60;;;;;;;;;;6162386;23;20155;-91
2022/12/03 13:24:41;;;;;;;20.60;14.02;;;;;;;;;;6185070;23;20147;-92
2022/12/03 13:27:13;;;;;;;23.55;13.93;;;;;;;;;;6163436;23;20298;-89
2022/12/03 13:29:57;;;;;;;28.67;15.85;;;;;;;;;;6167653;23;20167;-90
2022/12/03 13:32:31;;;;;;;29.75;15.85;;;;;;;;;;6163375;23;20160;-91
2022/12/03 13:35:06;;;;;;;29.17;15.30;;;;;;;;;;6162881;23;20318;-93
2022/12/03 13:37:32;;;;;;;30.48;17.20;;;;;;;;;;6165577;23;20164;-90
2022/12/03 13:40:14;;;;;;;24.02;15.70;;;;;;;;;;6166568;23;20171;-89
2022/12/03 13:42:48;;;;;;;27.40;15.30;;;;;;;;;;6196825;23;20168;-89
2022/12/03 13:45:14;;;;;;;27.73;15.18;;;;;;;;;;6155540;23;20169;-91
2022/12/03 13:47:54;;;;;;;33.45;17.08;;;;;;;;;;6155083;23;20254;-91
2022/12/03 13:50:20;;;;;;;26.98;15.18;;;;;;;;;;6160218;23;20191;-91
2022/12/03 13:52:54;;;;;;;27.88;14.65;;;;;;;;;;6158454;23;20154;-90
2022/12/03 13:55:28;;;;;;;24.15;14.43;;;;;;;;;;6162360;23;20643;-86
2022/12/03 13:57:57;;;;;;;31.80;16.60;;;;;;;;;;6160729;23;20603;-92
2022/12/03 14:00:24;;;;;;;28.60;15.80;;;;;;;;;;6164152;23;20168;-87
2022/12/03 14:02:50;;;;;;;22.92;13.63;;;;;;;;;;6175918;23;20186;-89
2022/12/03 14:05:18;;;;;;;27.40;15.65;;;;;;;;;;6179013;23;20163;-90
2022/12/03 14:07:44;;;;;;;29.90;15.07;;;;;;;;;;6204999;23;20136;-93
2022/12/03 14:10:11;;;;;;;26.88;15.15;;;;;;;;;;6180708;23;20163;-91
2022/12/03 14:12:39;;;;;;;27.67;15.30;;;;;;;;;;6168040;23;20152;-91
2022/12/03 14:15:06;;;;;;;24.05;11.80;;;;;;;;;;6166559;23;20168;-93
2022/12/03 14:17:34;;;;;;;27.15;15.07;;;;;;;;;;6170788;23;20183;-90
2022/12/03 14:20:00;;;;;;;23.23;14.02;;;;;;;;;;6165672;23;20168;-90
2022/12/03 14:22:32;;;;;;;23.27;13.68;;;;;;;;;;6188770;23;20173;-92
2022/12/03 14:25:07;;;;;;;33.60;15.68;;;;;;;;;;6168011;23;20216;-90
2022/12/03 14:27:33;;;;;;;23.73;14.52;;;;;;;;;;6162457;23;20156;-91
2022/12/03 14:30:08;;;;;;;25.33;14.15;;;;;;;;;;6167050;23;20175;-92
2022/12/03 14:35:46;;;;;;;19.60;11.60;;;;;;;;;;6183559;23;20169;-88
2022/12/03 14:38:33;;;;;;;26.43;15.90;;;;;;;;;;6168125;23;20457;-92
2022/12/03 14:42:21;;;;;;;;;;;;;;;;;;;;;
2022/12/03 14:43:52;;;;;;;23.40;14.02;;;;;;;;;;6159097;23;20201;-92
2022/12/03 14:46:23;;;;;;;23.67;14.13;;;;;;;;;;6177244;23;20141;-91
2022/12/03 14:48:55;;;;;;;22.73;14.57;;;;;;;;;;6207090;23;20163;-90
2022/12/03 14:51:29;;;;;;;26.83;14.48;;;;;;;;;;6167014;23;20163;-93
2022/12/03 14:53:55;;;;;;;23.92;14.90;;;;;;;;;;6163006;23;20151;-93
2022/12/03 14:56:23;;;;;;;25.58;13.48;;;;;;;;;;6164843;23;20164;-91
2022/12/03 14:58:50;;;;;;;26.15;15.20;;;;;;;;;;6193004;23;20158;-91
2022/12/03 15:01:23;;;;;;;27.95;16.05;;;;;;;;;;6173222;23;20158;-93
2022/12/03 16:50:25;;;;;;;31.77;15.50;;;;;;;;;;6172072;23;20204;-92
2022/12/03 16:52:55;;;;;;;22.10;13.20;;;;;;;;;;6149248;23;20215;-90
2022/12/03 16:55:45;;;;;;;28.08;15.32;;;;;;;;;;6171096;23;20164;-91
2022/12/03 16:58:11;;;;;;;26.98;16.27;;;;;;;;;;6175074;23;20212;-91
2022/12/03 17:00:37;;;;;;;26.58;14.20;;;;;;;;;;6173857;23;20166;-89
2022/12/03 17:15:54;;;;;;;25.30;14.73;;;;;;;;;;6175221;23;20257;-89
2022/12/03 17:18:29;;;;;;;25.05;14.63;;;;;;;;;;6192461;23;20152;-90
2022/12/03 17:21:30;;;;;;;20.77;13.40;;;;;;;;;;6169484;23;20156;-91
2022/12/03 17:24:34;;;;;;;21.25;12.00;;;;;;;;;;6178314;23;20179;-92
2022/12/03 17:27:08;;;;;;;26.58;14.77;;;;;;;;;;6165935;23;20159;-90
2022/12/03 17:32:17;;;;;;;28.63;15.90;;;;;;;;;;6184221;23;20655;-90
2022/12/03 17:34:56;;;;;;;24.30;13.35;;;;;;;;;;6166066;23;20195;-91
2022/12/03 17:37:30;;;;;;;24.63;14.27;;;;;;;;;;6158354;23;20160;-90
2022/12/03 17:39:56;;;;;;;25.40;14.63;;;;;;;;;;6169619;23;20159;-90
2022/12/03 17:50:13;;;;;;;20.25;12.73;;;;;;;;;;6191035;22;20195;-91
2022/12/03 17:52:39;;;;;;;25.85;15.32;;;;;;;;;;6164035;23;20148;-89
2022/12/03 17:55:06;;;;;;;27.27;14.95;;;;;;;;;;6164080;23;20167;-90
2022/12/03 17:57:34;;;;;;;25.85;14.43;;;;;;;;;;6161218;23;20382;-89
2022/12/03 18:00:09;;;;;;;23.42;13.05;;;;;;;;;;6188622;23;20160;-90
2022/12/03 18:02:36;;;;;;;24.60;15.85;;;;;;;;;;6167327;23;20267;-91
2022/12/03 18:05:21;;;;;;;23.90;14.55;;;;;;;;;;6163940;23;20184;-90
2022/12/03 18:07:57;;;;;;;24.02;13.75;;;;;;;;;;6168471;23;20179;-90
2022/12/03 18:10:27;;;;;;;21.70;13.10;;;;;;;;;;6169133;23;20159;-91
2022/12/03 18:12:54;;;;;;;23.70;14.63;;;;;;;;;;6163635;23;20156;-92
2022/12/03 18:18:27;;;;;;;18.52;10.18;;;;;;;;;;6165349;23;20177;-91
2022/12/03 18:20:53;;;;;;;20.77;13.85;;;;;;;;;;6114868;23;20164;-90
2022/12/03 18:23:20;;;;;;;20.05;12.38;;;;;;;;;;6142616;23;20180;-91
2022/12/03 18:25:50;;;;;;;22.15;13.75;;;;;;;;;;6146483;23;20172;-91
2022/12/03 18:28:30;;;;;;;27.65;13.77;;;;;;;;;;6129986;23;20165;-91
2022/12/03 18:30:59;;;;;;;21.15;11.23;;;;;;;;;;6155254;23;20159;-92
2022/12/03 18:33:25;;;;;;;19.45;12.82;;;;;;;;;;6147779;23;20223;-90
2022/12/03 18:35:58;;;;;;;24.30;13.95;;;;;;;;;;6147632;23;20171;-88
2022/12/03 18:38:26;;;;;;;21.25;14.20;;;;;;;;;;6147288;23;20170;-92
2022/12/03 18:41:22;;;;;;;23.27;12.80;;;;;;;;;;6141847;23;20180;-92
2022/12/03 18:43:54;;;;;;;20.00;13.05;;;;;;;;;;6137117;23;20176;-91
2022/12/03 18:46:20;;;;;;;23.27;12.95;;;;;;;;;;6141458;23;20169;-91
2022/12/03 18:48:47;;;;;;;23.00;14.63;;;;;;;;;;6137884;23;20164;-92
2022/12/03 18:51:18;;;;;;;20.15;13.30;;;;;;;;;;6137770;23;20277;-91
2022/12/03 18:53:44;;;;;;;22.27;14.32;;;;;;;;;;6143113;23;20161;-92
2022/12/03 18:56:10;;;;;;;24.40;13.55;;;;;;;;;;6147585;23;20160;-90
2022/12/03 18:58:37;;;;;;;19.00;12.55;;;;;;;;;;6142849;23;20183;-92
2022/12/03 19:01:06;;;;;;;19.52;12.18;;;;;;;;;;6143706;23;20157;-92
2022/12/03 19:03:34;;;;;;;22.42;14.85;;;;;;;;;;6173310;23;20239;-92
2022/12/03 19:06:00;;;;;;;23.90;14.10;;;;;;;;;;6141191;23;20165;-90
2022/12/03 19:08:26;;;;;;;21.43;12.83;;;;;;;;;;6169642;23;20140;-91
2022/12/03 19:13:29;;;;;;;20.00;11.13;;;;;;;;;;6175888;23;20200;-91
2022/12/03 19:16:02;;;;;;;21.48;13.05;;;;;;;;;;6146054;23;20164;-89
2022/12/03 19:18:28;;;;;;;21.92;13.57;;;;;;;;;;6146616;23;20153;-92
2022/12/03 19:20:57;;;;;;;19.67;13.48;;;;;;;;;;6147094;23;20161;-92
2022/12/03 19:23:26;;;;;;;26.08;14.75;;;;;;;;;;6141227;23;20231;-91
2022/12/03 19:26:14;;;;;;;22.65;14.30;;;;;;;;;;6146259;23;20169;-90
2022/12/03 19:28:40;;;;;;;18.58;12.10;;;;;;;;;;6141075;23;20148;-92
2022/12/03 19:31:17;;;;;;;23.38;14.40;;;;;;;;;;6143036;23;20152;-93
2022/12/03 19:36:37;;;;;;;23.45;14.50;;;;;;;;;;6185147;23;20195;-91
2022/12/03 19:39:03;;;;;;;23.42;14.10;;;;;;;;;;6174684;23;20167;-92
2022/12/03 19:52:56;;;;;;;26.38;14.85;;;;;;;;;;6172501;23;20291;-90
2022/12/03 19:55:22;;;;;;;20.60;13.80;;;;;;;;;;6165227;23;20175;-91
2022/12/03 19:57:48;;;;;;;26.63;16.80;;;;;;;;;;6159998;23;20160;-90
2022/12/03 20:00:14;;;;;;;23.77;13.85;;;;;;;;;;6160864;23;20221;-90
2022/12/03 20:02:40;;;;;;;27.75;16.20;;;;;;;;;;6160350;23;20216;-90